createdAt,value
2022-12-29T00:03:15.197Z,74.37
2022-12-29T00:07:32.291Z,74.50
2022-12-29T00:11:51.228Z,74.35
2022-12-29T00:16:10.109Z,74.38
2022-12-29T00:20:45.895Z,73.93
2022-12-29T00:25:22.798Z,73.22
2022-12-29T00:29:58.574Z,71.96
2022-12-29T00:34:34.571Z,72.23
2022-12-29T00:39:19.313Z,72.09
2022-12-29T00:43:55.501Z,71.65
2022-12-29T00:48:12.387Z,71.73
2022-12-29T00:52:29.443Z,71.02
2022-12-29T00:56:53.149Z,69.89
2022-12-29T01:01:11.019Z,69.78
2022-12-29T01:05:27.949Z,69.16
2022-12-29T01:10:03.562Z,68.86
2022-12-29T01:14:21.381Z,68.81
2022-12-29T01:18:38.421Z,68.23
2022-12-29T01:22:55.608Z,68.63
2022-12-29T01:27:12.673Z,69.34
2022-12-29T01:31:29.615Z,69.86
2022-12-29T01:35:46.828Z,69.73
2022-12-29T01:40:04.233Z,70.34
2022-12-29T01:45:02.760Z,69.92
2022-12-29T01:49:28.076Z,69.70
2022-12-29T01:53:46.237Z,69.79
2022-12-29T01:58:06.882Z,70.73
2022-12-29T02:02:25.415Z,71.52
2022-12-29T02:06:58.673Z,71.29
2022-12-29T02:11:17.719Z,71.19
2022-12-29T02:16:05.822Z,72.11
2022-12-29T02:21:41.379Z,70.46
2022-12-29T02:26:36.131Z,71.23
2022-12-29T02:31:50.261Z,70.94
2022-12-29T02:36:28.420Z,70.97
2022-12-29T02:41:04.278Z,70.89
2022-12-29T02:45:28.179Z,71.37
2022-12-29T02:50:06.708Z,72.82
2022-12-29T02:54:42.631Z,72.32
2022-12-29T02:58:59.721Z,71.91
2022-12-29T03:03:44.284Z,72.90
2022-12-29T03:08:13.278Z,72.05
2022-12-29T03:13:19.199Z,71.63
2022-12-29T03:17:57.412Z,71.44
2022-12-29T03:22:32.266Z,71.90
2022-12-29T03:26:50.581Z,72.37
2022-12-29T03:31:10.347Z,73.15
2022-12-29T03:35:33.212Z,72.88
2022-12-29T03:39:50.189Z,72.24
2022-12-29T03:44:08.142Z,72.15
2022-12-29T03:48:25.041Z,72.93
2022-12-29T03:52:42.235Z,72.27
2022-12-29T03:56:59.300Z,72.59
2022-12-29T04:01:16.536Z,72.93
2022-12-29T04:05:35.493Z,72.94
2022-12-29T04:09:52.328Z,73.60
2022-12-29T04:14:09.399Z,73.64
2022-12-29T04:18:26.283Z,73.39
2022-12-29T04:22:44.687Z,74.39
2022-12-29T04:27:01.406Z,75.14
2022-12-29T04:31:18.791Z,74.73
2022-12-29T04:35:35.938Z,74.23
2022-12-29T04:39:53.059Z,74.88
2022-12-29T04:44:09.958Z,77.31
2022-12-29T04:48:27.000Z,79.11
2022-12-29T04:52:43.871Z,79.98
2022-12-29T04:57:00.965Z,80.18
2022-12-29T05:01:17.944Z,81.34
2022-12-29T05:05:35.432Z,82.02
2022-12-29T05:09:52.306Z,82.24
2022-12-29T05:14:09.412Z,82.74
2022-12-29T05:18:26.277Z,83.22
2022-12-29T05:22:43.366Z,83.47
2022-12-29T05:27:00.186Z,83.62
2022-12-29T05:31:17.386Z,83.85
2022-12-29T05:35:34.627Z,83.87
2022-12-29T05:39:51.748Z,83.26
2022-12-29T05:44:08.782Z,84.11
2022-12-29T05:48:25.878Z,84.41
2022-12-29T05:52:42.962Z,85.35
2022-12-29T05:56:59.929Z,85.65
2022-12-29T06:01:17.133Z,86.00
2022-12-29T06:05:34.342Z,86.08
2022-12-29T06:09:51.752Z,86.03
2022-12-29T06:14:08.773Z,85.96
2022-12-29T06:18:25.855Z,85.83
2022-12-29T06:22:42.693Z,85.98
2022-12-29T06:27:01.073Z,86.06
2022-12-29T06:31:17.905Z,86.49
2022-12-29T06:35:35.161Z,86.93
2022-12-29T06:39:52.101Z,86.45
2022-12-29T06:44:09.370Z,85.88
2022-12-29T06:48:26.196Z,86.14
2022-12-29T06:52:43.305Z,86.28
2022-12-29T06:57:00.576Z,86.32
2022-12-29T07:01:17.829Z,86.55
2022-12-29T07:05:34.752Z,86.22
2022-12-29T07:09:52.242Z,86.26
2022-12-29T07:14:09.064Z,85.89
2022-12-29T07:18:26.173Z,86.13
2022-12-29T07:22:43.003Z,85.94
2022-12-29T07:27:00.080Z,85.66
2022-12-29T07:31:21.143Z,85.49
2022-12-29T07:35:38.236Z,85.35
2022-12-29T07:39:55.041Z,85.06
2022-12-29T07:44:12.245Z,85.28
2022-12-29T07:48:29.470Z,85.25
2022-12-29T07:52:48.368Z,85.34
2022-12-29T07:57:07.733Z,84.75
2022-12-29T08:01:25.038Z,84.99
2022-12-29T08:05:41.953Z,82.76
2022-12-29T08:09:59.345Z,80.98
2022-12-29T08:14:16.301Z,79.86
2022-12-29T08:18:33.433Z,77.96
2022-12-29T08:22:50.301Z,77.37
2022-12-29T08:27:16.186Z,73.73
2022-12-29T08:31:37.115Z,73.65
2022-12-29T08:36:00.820Z,74.41
2022-12-29T08:40:17.666Z,76.23
2022-12-29T08:44:34.710Z,76.48
2022-12-29T08:48:51.636Z,76.46
2022-12-29T08:53:08.714Z,73.43
2022-12-29T08:57:26.184Z,72.19
2022-12-29T09:01:43.377Z,71.76
2022-12-29T09:06:00.561Z,70.12
2022-12-29T09:10:17.547Z,70.46
2022-12-29T09:14:34.605Z,70.62
2022-12-29T09:18:51.819Z,68.70
2022-12-29T09:23:08.972Z,67.42
2022-12-29T09:27:25.827Z,67.81
2022-12-29T09:31:42.917Z,66.11
2022-12-29T09:36:00.137Z,66.20
2022-12-29T09:40:31.063Z,65.92
2022-12-29T09:45:30.432Z,64.61
2022-12-29T09:50:13.728Z,63.50
2022-12-29T09:54:53.879Z,62.09
2022-12-29T09:59:21.629Z,62.29
2022-12-29T10:03:52.964Z,60.95
2022-12-29T10:08:48.237Z,61.09
2022-12-29T10:13:43.320Z,61.52
2022-12-29T10:18:35.509Z,61.95
2022-12-29T10:23:04.799Z,61.30
2022-12-29T10:27:23.656Z,59.47
2022-12-29T10:32:07.647Z,58.84
2022-12-29T10:36:39.756Z,59.52
2022-12-29T10:41:01.043Z,59.86
2022-12-29T10:45:20.302Z,59.62
2022-12-29T10:49:42.715Z,59.60
2022-12-29T10:54:07.604Z,58.31
2022-12-29T10:58:26.217Z,56.59
2022-12-29T11:03:14.184Z,56.34
2022-12-29T11:07:32.479Z,57.07
2022-12-29T11:11:49.448Z,54.36
2022-12-29T11:16:06.899Z,55.80
2022-12-29T11:20:40.662Z,53.67
2022-12-29T11:25:12.080Z,52.25
2022-12-29T11:29:40.879Z,49.22
2022-12-29T11:33:57.746Z,46.64
2022-12-29T11:38:26.629Z,47.75
2022-12-29T11:42:59.820Z,45.41
2022-12-29T11:47:33.659Z,42.85
2022-12-29T11:51:53.154Z,50.34
2022-12-29T11:56:15.320Z,52.97
2022-12-29T12:00:37.382Z,48.68
2022-12-29T12:05:03.848Z,50.00
2022-12-29T12:09:28.554Z,55.18
2022-12-29T12:14:06.080Z,57.18
2022-12-29T12:18:37.406Z,58.11
2022-12-29T12:23:24.005Z,58.92
2022-12-29T12:28:16.666Z,58.14
2022-12-29T12:33:00.393Z,55.74
2022-12-29T12:37:35.704Z,53.92
2022-12-29T12:42:32.140Z,52.64
2022-12-29T12:47:22.100Z,49.10
2022-12-29T12:52:02.992Z,50.77
2022-12-29T12:56:49.284Z,46.83
2022-12-29T13:01:15.439Z,45.01
2022-12-29T13:05:41.322Z,50.85
2022-12-29T13:10:17.064Z,57.71
2022-12-29T13:14:57.094Z,59.60
2022-12-29T13:19:52.890Z,59.96
2022-12-29T13:24:50.233Z,62.10
2022-12-29T13:29:31.968Z,61.47
2022-12-29T13:34:04.923Z,60.72
2022-12-29T13:38:30.252Z,60.72
2022-12-29T13:42:48.233Z,60.69
2022-12-29T13:47:29.638Z,61.53
2022-12-29T13:51:51.927Z,61.29
2022-12-29T13:56:21.883Z,60.81
2022-12-29T14:01:01.405Z,61.61
2022-12-29T14:05:21.165Z,62.16
2022-12-29T14:09:49.381Z,62.68
2022-12-29T14:14:29.928Z,63.21
2022-12-29T14:18:48.287Z,63.60
2022-12-29T14:23:11.164Z,64.40
2022-12-29T14:27:31.301Z,65.03
2022-12-29T14:31:48.228Z,65.76
2022-12-29T14:36:38.903Z,66.45
2022-12-29T14:41:26.285Z,67.76
2022-12-29T14:45:43.903Z,68.59
2022-12-29T14:50:14.888Z,69.02
2022-12-29T14:54:34.839Z,68.81
2022-12-29T14:59:03.155Z,69.80
2022-12-29T15:03:46.344Z,70.09
2022-12-29T15:08:05.336Z,70.17
2022-12-29T15:12:42.021Z,70.73
2022-12-29T15:16:59.669Z,71.04
2022-12-29T15:21:17.701Z,71.39
2022-12-29T15:25:35.152Z,71.16
2022-12-29T15:30:04.840Z,71.02
2022-12-29T15:34:22.752Z,70.43
2022-12-29T15:38:40.705Z,70.08
2022-12-29T15:43:14.865Z,70.30
2022-12-29T15:47:35.247Z,69.75
2022-12-29T15:51:52.370Z,70.17
2022-12-29T15:56:11.538Z,70.64
2022-12-29T16:00:36.821Z,72.51
2022-12-29T16:05:17.245Z,72.46
2022-12-29T16:09:43.600Z,72.90
2022-12-29T16:14:01.465Z,74.28
2022-12-29T16:18:52.014Z,75.93
2022-12-29T16:23:27.317Z,76.56
2022-12-29T16:27:46.148Z,76.38
2022-12-29T16:32:06.501Z,75.28
2022-12-29T16:36:41.622Z,76.79
2022-12-29T16:41:03.093Z,77.05
2022-12-29T16:45:19.960Z,77.88
2022-12-29T16:49:41.553Z,78.57
2022-12-29T16:54:00.424Z,79.69
2022-12-29T16:58:25.163Z,79.50
2022-12-29T17:02:46.367Z,78.43
2022-12-29T17:07:03.685Z,78.20
2022-12-29T17:11:58.354Z,78.14
2022-12-29T17:16:17.071Z,76.57
2022-12-29T17:20:34.356Z,73.46
2022-12-29T17:24:55.829Z,72.25
2022-12-29T17:29:40.936Z,70.93
2022-12-29T17:33:58.042Z,70.23
2022-12-29T17:38:30.113Z,70.59
2022-12-29T17:42:56.335Z,70.91
2022-12-29T17:47:13.316Z,71.00
2022-12-29T17:51:30.414Z,69.76
2022-12-29T17:55:47.252Z,69.96
2022-12-29T18:00:05.239Z,69.77
2022-12-29T18:04:22.127Z,69.88
2022-12-29T18:08:41.449Z,70.54
2022-12-29T18:13:00.521Z,70.86
2022-12-29T18:17:17.684Z,70.85
2022-12-29T18:21:34.788Z,70.22
2022-12-29T18:26:23.933Z,70.57
2022-12-29T18:30:42.564Z,70.90
2022-12-29T18:34:59.704Z,71.03
2022-12-29T18:39:16.536Z,71.62
2022-12-29T18:43:33.633Z,71.84
2022-12-29T18:47:50.947Z,72.38
2022-12-29T18:52:13.987Z,73.52
2022-12-29T18:56:30.888Z,74.50
2022-12-29T19:00:48.012Z,74.29
2022-12-29T19:05:18.201Z,73.14
2022-12-29T19:09:35.328Z,73.12
2022-12-29T19:13:52.121Z,73.14
2022-12-29T19:22:59.556Z,75.44
2022-12-29T19:27:16.627Z,75.37
2022-12-29T19:31:34.098Z,75.99
2022-12-29T19:35:52.561Z,75.66
2022-12-29T19:40:14.781Z,75.97
2022-12-29T19:44:31.836Z,75.70
2022-12-29T19:48:49.189Z,75.19
2022-12-29T19:53:06.361Z,75.58
2022-12-29T19:57:23.727Z,75.68
2022-12-29T20:01:40.845Z,76.24
2022-12-29T20:05:58.087Z,77.41
2022-12-29T20:10:15.269Z,77.92
2022-12-29T20:14:32.423Z,77.05
2022-12-29T20:18:49.636Z,75.99
2022-12-29T20:23:06.589Z,75.86
2022-12-29T20:27:24.749Z,76.51
2022-12-29T20:31:42.583Z,77.34
2022-12-29T20:36:15.687Z,77.95
2022-12-29T20:40:32.695Z,78.44
2022-12-29T20:44:51.086Z,79.00
2022-12-29T20:49:08.419Z,79.32
2022-12-29T20:53:30.208Z,80.02
2022-12-29T20:58:22.782Z,80.73
2022-12-29T21:02:24.638Z,80.28
2022-12-29T21:06:41.650Z,82.19
2022-12-29T21:10:59.265Z,82.24
2022-12-29T21:15:16.256Z,82.88
2022-12-29T21:19:33.484Z,83.76
2022-12-29T21:23:52.279Z,84.13
2022-12-29T21:28:12.811Z,84.28
2022-12-29T21:32:29.786Z,84.69
2022-12-29T21:36:46.898Z,84.70
2022-12-29T21:41:09.837Z,84.85
2022-12-29T21:45:26.955Z,85.20
2022-12-29T21:49:43.853Z,85.41
2022-12-29T21:54:21.175Z,85.07
2022-12-29T21:58:59.399Z,84.22
2022-12-29T22:03:35.165Z,84.84
2022-12-29T22:08:11.549Z,85.32
2022-12-29T22:12:50.612Z,85.75
2022-12-29T22:17:13.833Z,85.99
2022-12-29T22:21:31.201Z,86.60
2022-12-29T22:25:48.879Z,86.62
2022-12-29T22:30:07.500Z,86.31
2022-12-29T22:34:25.936Z,86.02
2022-12-29T22:38:42.784Z,86.55
2022-12-29T22:42:59.851Z,86.89
2022-12-29T22:47:16.869Z,87.05
2022-12-29T22:51:33.747Z,87.24
2022-12-29T22:55:51.095Z,87.20
2022-12-29T23:00:09.153Z,87.26
2022-12-29T23:05:01.761Z,87.44
2022-12-29T23:09:05.564Z,87.49
2022-12-29T23:13:22.800Z,87.54
2022-12-29T23:17:39.855Z,87.82
2022-12-29T23:21:56.928Z,87.83
2022-12-29T23:26:13.757Z,88.10
2022-12-29T23:30:31.147Z,88.42
2022-12-29T23:34:48.185Z,88.46
2022-12-29T23:39:05.931Z,88.20
2022-12-29T23:43:23.069Z,88.46
2022-12-29T23:47:40.103Z,88.95
2022-12-29T23:51:57.118Z,88.52
2022-12-29T23:56:21.555Z,89.06
